createdAt,value
2019-02-05T00:02:10.765Z,10.00
2019-02-05T00:04:51.029Z,8.23
2019-02-05T00:07:32.056Z,11.87
2019-02-05T00:10:12.925Z,13.23
2019-02-05T00:12:53.405Z,12.20
2019-02-05T00:15:34.303Z,11.70
2019-02-05T00:18:15.084Z,13.27
2019-02-05T00:20:55.834Z,13.77
2019-02-05T00:23:36.308Z,9.70
2019-02-05T00:26:17.392Z,11.80
2019-02-05T00:28:58.183Z,11.07
2019-02-05T00:31:39.188Z,11.57
2019-02-05T00:34:20.012Z,11.10
2019-02-05T00:37:02.198Z,11.37
2019-02-05T00:39:43.563Z,10.57
2019-02-05T00:42:24.215Z,9.77
2019-02-05T00:45:04.805Z,12.27
2019-02-05T00:47:45.490Z,10.87
2019-02-05T00:50:26.395Z,9.87
2019-02-05T00:53:07.097Z,11.83
2019-02-05T00:55:47.738Z,12.70
2019-02-05T00:58:28.414Z,12.47
2019-02-05T01:01:09.374Z,12.63
2019-02-05T01:03:50.099Z,9.87
2019-02-05T01:06:30.519Z,10.33
2019-02-05T01:09:11.349Z,11.37
2019-02-05T01:11:52.009Z,11.00
2019-02-05T01:14:32.665Z,13.60
2019-02-05T01:17:13.460Z,11.17
2019-02-05T01:19:54.182Z,12.10
2019-02-05T01:22:35.300Z,12.33
2019-02-05T01:25:15.804Z,14.23
2019-02-05T01:27:44.215Z,12.13
2019-02-05T01:30:32.387Z,16.73
2019-02-05T01:33:20.284Z,14.73
2019-02-05T01:36:09.800Z,13.63
2019-02-05T01:38:57.564Z,13.37
2019-02-05T01:41:45.311Z,14.03
2019-02-05T01:44:33.077Z,13.90
2019-02-05T01:47:20.865Z,16.03
2019-02-05T01:50:29.573Z,13.20
2019-02-05T01:53:17.336Z,13.87
2019-02-05T01:56:05.550Z,13.87
2019-02-05T01:58:53.414Z,13.63
2019-02-05T02:01:41.194Z,13.47
2019-02-05T02:04:28.952Z,13.87
2019-02-05T02:07:16.697Z,13.67
2019-02-05T02:10:25.436Z,13.90
2019-02-05T02:13:13.174Z,14.70
2019-02-05T02:15:54.287Z,13.50
2019-02-05T02:18:34.905Z,15.43
2019-02-05T02:21:15.921Z,12.80
2019-02-05T02:23:56.764Z,13.93
2019-02-05T02:26:38.310Z,12.90
2019-02-05T02:29:19.084Z,15.00
2019-02-05T02:32:00.282Z,13.43
2019-02-05T02:34:41.189Z,12.23
2019-02-05T02:37:21.934Z,15.57
2019-02-05T02:40:02.125Z,14.93
2019-02-05T02:42:42.772Z,12.93
2019-02-05T02:45:23.405Z,13.30
2019-02-05T02:48:04.252Z,14.93
2019-02-05T02:53:27.317Z,13.77
2019-02-05T02:56:07.754Z,13.23
2019-02-05T02:58:48.408Z,15.33
2019-02-05T03:01:29.613Z,13.03
2019-02-05T03:04:10.489Z,16.70
2019-02-05T03:06:51.273Z,15.37
2019-02-05T03:09:32.210Z,15.10
2019-02-05T03:12:12.762Z,17.00
2019-02-05T03:14:53.647Z,12.57
2019-02-05T03:17:34.420Z,17.40
2019-02-05T03:20:15.501Z,18.57
2019-02-05T03:22:56.245Z,17.80
2019-02-05T03:25:36.910Z,20.50
2019-02-05T03:28:05.313Z,17.50
2019-02-05T03:30:53.086Z,17.73
2019-02-05T03:33:42.544Z,19.57
2019-02-05T03:36:30.324Z,20.70
2019-02-05T03:39:18.109Z,21.97
2019-02-05T03:42:05.848Z,19.30
2019-02-05T03:44:53.613Z,20.37
2019-02-05T03:47:41.380Z,18.03
2019-02-05T03:50:29.901Z,18.97
2019-02-05T03:53:37.097Z,16.83
2019-02-05T03:56:44.193Z,18.27
2019-02-05T03:59:51.291Z,20.63
2019-02-05T04:02:58.455Z,16.27
2019-02-05T04:06:07.173Z,19.70
2019-02-05T04:09:14.281Z,19.23
2019-02-05T04:11:55.219Z,8.33
2019-02-05T04:14:36.426Z,19.80
2019-02-05T04:17:17.369Z,18.73
2019-02-05T04:19:58.237Z,19.97
2019-02-05T04:22:39.097Z,18.53
2019-02-05T04:25:19.743Z,20.93
2019-02-05T04:28:00.840Z,20.27
2019-02-05T04:31:08.180Z,20.63
2019-02-05T04:34:15.504Z,21.53
2019-02-05T04:37:24.345Z,20.77
2019-02-05T04:40:31.434Z,20.07
2019-02-05T04:43:12.400Z,20.00
2019-02-05T04:45:53.188Z,19.80
2019-02-05T04:48:34.386Z,20.50
2019-02-05T04:51:17.784Z,21.23
2019-02-05T04:53:58.564Z,22.23
2019-02-05T04:56:39.321Z,22.90
2019-02-05T04:59:20.151Z,24.30
2019-02-05T05:02:00.521Z,22.27
2019-02-05T05:04:41.379Z,25.77
2019-02-05T05:07:22.442Z,24.20
2019-02-05T05:10:02.980Z,27.23
2019-02-05T05:12:44.094Z,24.77
2019-02-05T05:15:24.587Z,24.37
2019-02-05T05:18:05.856Z,22.53
2019-02-05T05:20:46.420Z,22.47
2019-02-05T05:23:27.305Z,22.63
2019-02-05T05:26:07.940Z,25.33
2019-02-05T05:28:48.781Z,21.93
2019-02-05T05:31:29.399Z,21.57
2019-02-05T05:34:10.531Z,22.30
2019-02-05T05:36:51.670Z,22.23
2019-02-05T05:39:32.617Z,23.97
2019-02-05T05:42:13.831Z,22.63
2019-02-05T05:44:55.350Z,24.17
2019-02-05T05:47:36.358Z,22.77
2019-02-05T05:50:17.161Z,23.47
2019-02-05T05:52:57.770Z,19.73
2019-02-05T05:55:38.188Z,21.87
2019-02-05T05:58:23.496Z,22.93
2019-02-05T06:01:01.774Z,23.57
2019-02-05T06:03:42.429Z,23.07
2019-02-05T06:06:23.061Z,21.93
2019-02-05T06:09:05.248Z,23.70
2019-02-05T06:11:46.284Z,25.40
2019-02-05T06:14:27.477Z,24.37
2019-02-05T06:17:08.440Z,21.63
2019-02-05T06:19:49.706Z,23.87
2019-02-05T06:22:30.454Z,18.53
2019-02-05T06:25:11.058Z,25.10
2019-02-05T06:27:51.970Z,18.37
2019-02-05T06:30:32.147Z,24.23
2019-02-05T06:33:13.088Z,27.30
2019-02-05T06:35:54.060Z,27.93
2019-02-05T06:38:34.595Z,25.73
2019-02-05T06:41:14.885Z,23.30
2019-02-05T06:43:55.572Z,27.27
2019-02-05T06:46:36.360Z,27.03
2019-02-05T06:49:17.052Z,24.80
2019-02-05T06:51:57.702Z,25.13
2019-02-05T06:54:38.339Z,18.50
2019-02-05T06:57:18.953Z,25.73
2019-02-05T07:00:00.185Z,29.70
2019-02-05T07:02:28.731Z,27.13
2019-02-05T07:05:16.803Z,27.27
2019-02-05T07:08:06.131Z,25.10
2019-02-05T07:10:53.895Z,23.63
2019-02-05T07:13:41.645Z,25.13
2019-02-05T07:16:29.409Z,24.70
2019-02-05T07:19:17.174Z,29.00
2019-02-05T07:21:47.324Z,24.47
2019-02-05T07:24:35.085Z,25.47
2019-02-05T07:27:23.073Z,26.73
2019-02-05T07:30:31.879Z,26.53
2019-02-05T07:33:19.624Z,22.33
2019-02-05T07:36:07.632Z,28.10
2019-02-05T07:38:55.472Z,22.03
2019-02-05T07:41:43.314Z,23.83
2019-02-05T07:44:31.329Z,23.90
2019-02-05T07:47:19.340Z,21.27
2019-02-05T07:50:28.073Z,26.00
2019-02-05T07:53:08.681Z,27.20
2019-02-05T07:55:49.270Z,24.67
2019-02-05T07:58:30.297Z,24.97
2019-02-05T08:01:10.753Z,23.90
2019-02-05T08:03:51.380Z,25.73
2019-02-05T08:06:32.344Z,26.63
2019-02-05T08:09:13.026Z,24.57
2019-02-05T08:11:53.881Z,17.97
2019-02-05T08:14:34.909Z,25.37
2019-02-05T08:17:15.560Z,23.40
2019-02-05T08:19:56.405Z,22.93
2019-02-05T08:22:37.188Z,19.23
2019-02-05T08:25:18.236Z,24.07
2019-02-05T08:27:59.293Z,24.87
2019-02-05T08:30:40.355Z,22.00
2019-02-05T08:33:21.148Z,26.37
2019-02-05T08:36:02.069Z,26.53
2019-02-05T08:38:42.995Z,26.67
2019-02-05T08:41:23.749Z,27.00
2019-02-05T08:44:04.601Z,30.90
2019-02-05T08:46:45.693Z,26.33
2019-02-05T08:49:26.506Z,27.37
2019-02-05T08:52:07.414Z,27.20
2019-02-05T08:54:48.504Z,31.83
2019-02-05T08:57:29.357Z,31.97
2019-02-05T09:00:10.205Z,28.47
2019-02-05T09:02:51.018Z,28.10
2019-02-05T09:05:31.825Z,31.03
2019-02-05T09:08:12.773Z,29.10
2019-02-05T09:10:53.187Z,32.50
2019-02-05T09:13:33.666Z,33.97
2019-02-05T09:16:14.408Z,33.27
2019-02-05T09:18:54.974Z,36.07
2019-02-05T09:21:35.800Z,34.83
2019-02-05T09:24:16.325Z,36.20
2019-02-05T09:26:57.537Z,33.20
2019-02-05T09:29:38.700Z,32.10
2019-02-05T09:32:19.654Z,33.53
2019-02-05T09:35:00.384Z,36.00
2019-02-05T09:37:41.732Z,32.07
2019-02-05T09:40:21.956Z,32.50
2019-02-05T09:43:02.796Z,32.07
2019-02-05T09:45:43.375Z,33.67
2019-02-05T09:48:24.032Z,29.07
2019-02-05T09:51:04.186Z,24.57
2019-02-05T09:53:44.824Z,32.50
2019-02-05T09:56:25.692Z,36.87
2019-02-05T09:59:06.924Z,21.47
2019-02-05T10:01:47.425Z,29.77
2019-02-05T10:04:27.969Z,29.90
2019-02-05T10:07:08.608Z,32.47
2019-02-05T10:09:49.194Z,23.53
2019-02-05T10:12:30.057Z,32.10
2019-02-05T10:15:10.736Z,32.60
2019-02-05T10:17:51.311Z,31.37
2019-02-05T10:20:32.827Z,32.20
2019-02-05T10:23:13.748Z,28.80
2019-02-05T10:25:54.393Z,27.97
2019-02-05T10:28:35.120Z,27.33
2019-02-05T10:31:15.851Z,27.03
2019-02-05T10:33:56.672Z,31.93
2019-02-05T10:36:37.412Z,23.47
2019-02-05T10:39:18.208Z,15.37
2019-02-05T10:41:59.150Z,25.47
2019-02-05T10:44:39.777Z,24.37
2019-02-05T10:47:20.469Z,27.10
2019-02-05T10:50:00.984Z,24.93
2019-02-05T10:52:41.745Z,25.50
2019-02-05T10:55:22.952Z,25.80
2019-02-05T10:58:03.490Z,25.20
2019-02-05T11:00:43.945Z,27.23
2019-02-05T11:03:24.523Z,28.13
2019-02-05T11:06:04.849Z,22.60
2019-02-05T11:08:45.757Z,22.13
2019-02-05T11:11:27.229Z,25.63
2019-02-05T11:14:07.665Z,24.30
2019-02-05T11:16:48.464Z,22.97
2019-02-05T11:19:29.431Z,24.00
2019-02-05T11:22:09.921Z,22.53
2019-02-05T11:24:50.590Z,23.30
2019-02-05T11:27:31.433Z,23.33
2019-02-05T11:30:20.025Z,24.07
2019-02-05T11:32:54.253Z,20.93
2019-02-05T11:35:34.524Z,21.13
2019-02-05T11:38:15.423Z,20.07
2019-02-05T11:40:55.821Z,22.33
2019-02-05T11:43:37.066Z,24.50
2019-02-05T11:48:59.577Z,23.90
2019-02-05T11:51:40.000Z,30.20
2019-02-05T11:54:20.634Z,24.00
2019-02-05T11:57:01.281Z,21.97
2019-02-05T11:59:42.452Z,25.43
2019-02-05T12:02:23.580Z,23.70
2019-02-05T12:05:04.543Z,27.20
2019-02-05T12:07:45.449Z,25.53
2019-02-05T12:10:26.172Z,27.00
2019-02-05T12:13:06.765Z,24.30
2019-02-05T12:15:47.796Z,24.87
2019-02-05T12:18:28.642Z,24.80
2019-02-05T12:21:09.636Z,24.80
2019-02-05T12:23:50.196Z,25.90
2019-02-05T12:26:30.745Z,24.53
2019-02-05T12:29:11.652Z,27.57
2019-02-05T12:31:52.693Z,24.10
2019-02-05T12:34:32.953Z,23.47
2019-02-05T12:37:13.776Z,34.90
2019-02-05T12:39:54.396Z,25.87
2019-02-05T12:42:35.340Z,24.03
2019-02-05T12:45:16.417Z,24.20
2019-02-05T12:47:57.315Z,28.23
2019-02-05T12:50:38.081Z,24.43
2019-02-05T12:53:18.825Z,18.57
2019-02-05T12:55:59.890Z,25.50
2019-02-05T12:58:40.624Z,25.17
2019-02-05T13:01:21.655Z,27.10
2019-02-05T13:04:02.530Z,34.03
2019-02-05T13:06:43.778Z,26.43
2019-02-05T13:09:24.889Z,19.53
2019-02-05T13:12:05.460Z,26.83
2019-02-05T13:17:16.632Z,25.63
2019-02-05T13:19:46.284Z,29.13
2019-02-05T13:22:14.804Z,22.00
2019-02-05T13:24:43.269Z,22.73
2019-02-05T13:27:11.716Z,24.07
2019-02-05T13:29:40.207Z,27.97
2019-02-05T13:32:09.054Z,29.10
2019-02-05T13:34:37.570Z,26.20
2019-02-05T13:37:10.600Z,21.90
2019-02-05T13:39:39.264Z,24.43
2019-02-05T13:42:07.722Z,22.03
2019-02-05T13:44:36.276Z,14.33
2019-02-05T13:47:04.949Z,21.87
2019-02-05T13:49:33.789Z,24.87
2019-02-05T13:52:02.220Z,24.00
2019-02-05T13:54:30.795Z,24.73
2019-02-05T13:56:59.192Z,25.87
2019-02-05T13:59:27.915Z,22.27
2019-02-05T14:01:56.741Z,26.40
2019-02-05T14:04:25.200Z,20.10
2019-02-05T14:06:53.621Z,24.93
2019-02-05T14:09:22.104Z,24.10
2019-02-05T14:11:50.581Z,23.80
2019-02-05T14:14:18.984Z,20.80
2019-02-05T14:16:47.414Z,11.47
2019-02-05T14:19:16.128Z,27.87
2019-02-05T14:21:44.547Z,21.87
2019-02-05T14:24:12.984Z,23.20
2019-02-05T14:26:41.404Z,25.17
2019-02-05T14:29:09.852Z,21.67
2019-02-05T14:31:38.271Z,22.90
2019-02-05T14:34:06.686Z,22.63
2019-02-05T14:36:35.079Z,25.77
2019-02-05T14:39:05.306Z,22.30
2019-02-05T14:41:33.732Z,22.70
2019-02-05T14:44:02.401Z,20.37
2019-02-05T14:46:30.796Z,21.07
2019-02-05T14:48:59.249Z,15.33
2019-02-05T14:51:27.928Z,8.80
2019-02-05T14:53:56.338Z,12.20
2019-02-05T14:56:24.782Z,20.73
2019-02-05T14:58:53.314Z,22.87
2019-02-05T15:01:22.283Z,19.57
2019-02-05T15:03:50.786Z,20.37
2019-02-05T15:06:19.474Z,22.43
2019-02-05T15:08:47.985Z,10.20
2019-02-05T15:11:16.416Z,16.27
2019-02-05T15:13:48.104Z,25.07
2019-02-05T15:16:16.487Z,23.00
2019-02-05T15:18:48.120Z,25.37
2019-02-05T15:21:16.997Z,22.63
2019-02-05T15:23:45.425Z,21.57
2019-02-05T15:26:13.911Z,25.23
2019-02-05T15:28:42.340Z,24.43
2019-02-05T15:31:11.029Z,21.67
2019-02-05T15:33:46.361Z,20.67
2019-02-05T15:36:19.576Z,24.37
2019-02-05T15:38:48.028Z,21.93
2019-02-05T15:41:16.436Z,24.97
2019-02-05T15:43:44.855Z,22.63
2019-02-05T15:46:13.283Z,24.20
2019-02-05T15:48:43.231Z,24.93
2019-02-05T15:51:11.936Z,20.77
2019-02-05T15:53:40.394Z,22.77
2019-02-05T15:56:09.058Z,24.90
2019-02-05T15:58:37.552Z,24.37
2019-02-05T16:01:06.600Z,21.23
2019-02-05T16:03:35.480Z,21.47
2019-02-05T16:06:05.469Z,24.03
2019-02-05T16:08:33.891Z,22.00
2019-02-05T16:11:02.424Z,23.10
2019-02-05T16:13:30.876Z,22.43
2019-02-05T16:15:59.363Z,23.87
2019-02-05T16:18:27.868Z,21.47
2019-02-05T16:20:56.495Z,21.27
2019-02-05T16:23:24.969Z,25.17
2019-02-05T16:25:53.426Z,22.70
2019-02-05T16:28:22.084Z,22.07
2019-02-05T16:30:50.700Z,22.70
2019-02-05T16:33:19.423Z,23.23
2019-02-05T16:35:47.842Z,22.90
2019-02-05T16:38:16.648Z,24.47
2019-02-05T16:40:45.051Z,29.27
2019-02-05T16:43:13.579Z,20.27
2019-02-05T16:45:42.073Z,24.87
2019-02-05T16:48:10.624Z,26.70
2019-02-05T16:50:44.024Z,24.77
2019-02-05T16:53:12.935Z,12.27
2019-02-05T16:55:41.503Z,22.07
2019-02-05T16:58:09.977Z,24.97
2019-02-05T17:00:39.348Z,24.77
2019-02-05T17:03:07.988Z,25.33
2019-02-05T17:05:38.912Z,27.00
2019-02-05T17:08:07.911Z,24.93
2019-02-05T17:10:36.436Z,24.90
2019-02-05T17:13:05.690Z,31.53
2019-02-05T17:15:34.112Z,25.43
2019-02-05T17:18:04.181Z,23.10
2019-02-05T17:20:33.220Z,23.73
2019-02-05T17:23:01.656Z,24.33
2019-02-05T17:25:30.416Z,25.27
2019-02-05T17:28:00.800Z,26.97
2019-02-05T17:30:32.206Z,27.87
2019-02-05T17:33:00.756Z,26.37
2019-02-05T17:35:29.252Z,30.23
2019-02-05T17:37:57.732Z,26.70
2019-02-05T17:40:26.916Z,32.73
2019-02-05T17:42:55.656Z,31.93
2019-02-05T17:45:32.680Z,27.27
2019-02-05T17:48:02.951Z,27.43
2019-02-05T17:50:34.145Z,30.17
2019-02-05T17:53:02.863Z,27.73
2019-02-05T17:55:31.348Z,27.63
2019-02-05T17:57:59.773Z,28.63
2019-02-05T18:00:32.896Z,30.07
2019-02-05T18:03:01.323Z,32.73
2019-02-05T18:05:34.736Z,31.83
2019-02-05T18:08:02.597Z,31.47
2019-02-05T18:10:33.901Z,30.57
2019-02-05T18:13:02.347Z,32.83
2019-02-05T18:15:33.895Z,34.47
2019-02-05T18:18:05.114Z,32.30
2019-02-05T18:20:33.980Z,33.90
2019-02-05T18:23:02.509Z,31.37
2019-02-05T18:25:33.557Z,34.90
2019-02-05T18:28:02.436Z,35.07
2019-02-05T18:30:35.270Z,34.70
2019-02-05T18:33:05.382Z,40.07
2019-02-05T18:35:34.245Z,34.10
2019-02-05T18:38:04.816Z,31.77
2019-02-05T18:40:33.250Z,35.27
2019-02-05T18:43:01.758Z,39.80
2019-02-05T18:45:30.211Z,38.43
2019-02-05T18:47:58.621Z,40.83
2019-02-05T18:50:28.899Z,37.17
2019-02-05T18:52:57.262Z,35.07
2019-02-05T18:55:28.569Z,40.53
2019-02-05T18:58:08.428Z,39.20
2019-02-05T19:00:29.208Z,39.50
2019-02-05T19:02:57.703Z,43.10
2019-02-05T19:05:26.548Z,45.33
2019-02-05T19:07:54.960Z,42.30
2019-02-05T19:10:25.991Z,45.07
2019-02-05T19:12:54.629Z,41.60
2019-02-05T19:15:26.002Z,40.37
2019-02-05T19:17:54.465Z,44.53
2019-02-05T19:20:25.274Z,42.37
2019-02-05T19:22:53.786Z,45.03
2019-02-05T19:25:24.278Z,44.40
2019-02-05T19:27:52.692Z,40.07
2019-02-05T19:30:25.518Z,43.70
2019-02-05T19:32:55.829Z,43.47
2019-02-05T19:35:24.540Z,44.63
2019-02-05T19:37:53.009Z,40.97
2019-02-05T19:40:21.459Z,42.60
2019-02-05T19:42:49.840Z,43.30
2019-02-05T19:45:19.978Z,42.00
2019-02-05T19:47:48.680Z,47.50
2019-02-05T19:50:17.187Z,45.40
2019-02-05T19:52:46.092Z,43.73
2019-02-05T19:55:14.595Z,40.87
2019-02-05T19:57:43.498Z,45.30
2019-02-05T20:00:18.245Z,46.33
2019-02-05T20:02:46.753Z,39.57
2019-02-05T20:05:16.790Z,39.33
2019-02-05T20:07:45.316Z,40.57
2019-02-05T20:10:16.046Z,45.93
2019-02-05T20:12:44.627Z,42.13
2019-02-05T20:15:19.614Z,45.80
2019-02-05T20:17:47.329Z,42.80
2019-02-05T20:20:20.753Z,44.77
2019-02-05T20:22:49.597Z,48.03
2019-02-05T20:25:18.929Z,42.30
2019-02-05T20:27:50.456Z,41.23
2019-02-05T20:30:26.257Z,40.53
2019-02-05T20:32:54.692Z,43.53
2019-02-05T20:35:23.092Z,41.13
2019-02-05T20:37:51.796Z,44.43
2019-02-05T20:40:25.056Z,38.70
2019-02-05T20:42:53.637Z,40.80
2019-02-05T20:45:22.044Z,43.23
2019-02-05T20:47:50.800Z,42.47
2019-02-05T20:50:20.200Z,38.93
2019-02-05T20:52:48.625Z,41.93
2019-02-05T20:55:21.580Z,38.47
2019-02-05T20:57:49.986Z,46.73
2019-02-05T21:00:26.645Z,43.30
2019-02-05T21:02:55.392Z,40.33
2019-02-05T21:05:24.057Z,40.80
2019-02-05T21:07:52.897Z,37.67
2019-02-05T21:10:23.831Z,42.80
2019-02-05T21:12:52.292Z,41.60
2019-02-05T21:15:21.864Z,44.40
2019-02-05T21:17:50.721Z,40.83
2019-02-05T21:20:29.614Z,38.40
2019-02-05T21:22:56.939Z,39.80
2019-02-05T21:25:25.972Z,39.10
2019-02-05T21:27:54.391Z,38.57
2019-02-05T21:30:23.960Z,42.70
2019-02-05T21:32:52.696Z,42.33
2019-02-05T21:35:21.368Z,41.77
2019-02-05T21:37:49.871Z,42.47
2019-02-05T21:40:21.639Z,41.70
2019-02-05T21:42:50.068Z,42.40
2019-02-05T21:45:29.452Z,42.60
2019-02-05T21:47:58.126Z,43.73
2019-02-05T21:50:26.525Z,45.57
2019-02-05T21:52:55.008Z,42.93
2019-02-05T21:55:24.771Z,42.70
2019-02-05T21:57:53.231Z,42.33
2019-02-05T22:00:24.386Z,43.57
2019-02-05T22:02:53.192Z,43.07
2019-02-05T22:05:21.919Z,44.00
2019-02-05T22:07:50.382Z,45.33
2019-02-05T22:10:19.338Z,43.37
2019-02-05T22:12:47.824Z,42.77
2019-02-05T22:15:18.357Z,45.37
2019-02-05T22:17:46.755Z,47.23
2019-02-05T22:20:23.399Z,46.13
2019-02-05T22:22:51.852Z,47.17
2019-02-05T22:25:25.858Z,48.43
2019-02-05T22:27:54.288Z,45.83
2019-02-05T22:30:28.141Z,43.70
2019-02-05T22:32:56.090Z,47.87
2019-02-05T22:35:24.627Z,44.63
2019-02-05T22:37:53.568Z,43.87
2019-02-05T22:40:24.113Z,47.03
2019-02-05T22:42:52.796Z,50.80
2019-02-05T22:45:31.831Z,47.73
2019-02-05T22:48:00.380Z,43.93
2019-02-05T22:50:33.220Z,43.83
2019-02-05T22:53:03.632Z,46.57
2019-02-05T22:55:32.128Z,47.87
2019-02-05T22:58:00.644Z,46.43
2019-02-05T23:00:34.008Z,40.57
2019-02-05T23:03:02.732Z,42.10
2019-02-05T23:05:56.924Z,45.40
2019-02-05T23:08:25.324Z,47.07
2019-02-05T23:11:03.546Z,45.13
2019-02-05T23:13:26.952Z,41.53
2019-02-05T23:15:55.648Z,39.33
2019-02-05T23:18:24.077Z,44.83
2019-02-05T23:20:53.973Z,43.03
2019-02-05T23:23:22.631Z,45.07
2019-02-05T23:25:51.112Z,41.33
2019-02-05T23:28:19.516Z,43.20
2019-02-05T23:30:47.916Z,41.30
2019-02-05T23:33:16.340Z,41.30
2019-02-05T23:35:44.756Z,36.70
2019-02-05T23:38:13.184Z,41.27
2019-02-05T23:40:41.688Z,42.40
2019-02-05T23:43:10.267Z,41.60
2019-02-05T23:45:38.731Z,39.10
2019-02-05T23:48:07.552Z,43.60
2019-02-05T23:50:36.028Z,42.00
2019-02-05T23:53:05.092Z,39.50
2019-02-05T23:55:33.548Z,43.47
2019-02-05T23:58:02.188Z,43.73
